Nicholson, Georgia
Current Conditions -  °F | °C
As of 2:55 PM on Sunday 23 Nov 2014 (Local Time) from K19A Reporting Station
Light Rain Light Rain  
Wind Chill: 45°   Ceiling: 400
Heat Index: 48°   Visibility: 5mi
Dew Point: 48°   Wind: 7mph
Humidity: 100%   Direction: 70°ENE
Pressure: 29.82"   Gusts: NA
Location:  34.11°N, 83.43°W
Report Text: K19A 231955Z AUTO 07006KT 5SM -RA OVC004 09/09 A2982 RMK AO2
Loading
Personal Weather Stations






























Interactive Weather Map New forecast layout! Learn more

10-Day Weather Forecast

Advertisements
Track Severe Weather on mobile